Time;durP1;ratioP1;P1;durP2;ratioP2;P2;SDS_P1;SDS_P2;PMS_P1;PMS_P2;Temp;Humidity;BMP_temperature;BMP_pressure;BME280_temperature;BME280_humidity;BME280_pressure;Samples;Min_cycle;Max_cycle;Signal;HPM_P1;HPM_P2
2024/03/03 00:01:45;;;;;;;37.78;17.65;;;;;;;;;;5053653;28;20017;-69
2024/03/03 00:04:31;;;;;;;39.92;19.73;;;;;;;;;;5052259;28;20032;-68
2024/03/03 00:07:16;;;;;;;44.08;18.65;;;;;;;;;;5053099;28;20025;-68
2024/03/03 00:10:03;;;;;;;41.17;18.95;;;;;;;;;;5053687;28;20063;-68
2024/03/03 00:12:48;;;;;;;46.67;18.50;;;;;;;;;;5057172;28;20482;-68
2024/03/03 00:15:34;;;;;;;42.92;17.88;;;;;;;;;;5056841;28;20024;-68
2024/03/03 00:18:20;;;;;;;42.55;18.73;;;;;;;;;;5042377;28;20124;-68
2024/03/03 00:21:11;;;;;;;44.08;19.33;;;;;;;;;;5050741;28;20053;-68
2024/03/03 00:23:57;;;;;;;45.47;19.88;;;;;;;;;;5031521;28;20025;-68
2024/03/03 00:26:43;;;;;;;50.67;19.90;;;;;;;;;;5037796;28;20544;-68
2024/03/03 00:29:28;;;;;;;47.50;17.65;;;;;;;;;;5020999;28;20536;-68
2024/03/03 00:32:14;;;;;;;46.13;16.20;;;;;;;;;;5035452;28;20403;-68
2024/03/03 00:34:59;;;;;;;44.50;18.95;;;;;;;;;;5043306;28;20074;-68
2024/03/03 00:37:45;;;;;;;45.47;18.25;;;;;;;;;;5035249;28;20021;-68
2024/03/03 00:40:32;;;;;;;48.28;18.42;;;;;;;;;;5034626;28;20025;-68
2024/03/03 00:43:18;;;;;;;46.17;20.27;;;;;;;;;;5036918;28;20025;-68
2024/03/03 00:46:05;;;;;;;45.40;16.65;;;;;;;;;;5035037;28;20402;-68
2024/03/03 00:48:50;;;;;;;46.72;18.30;;;;;;;;;;5035574;28;20025;-68
2024/03/03 00:51:36;;;;;;;42.42;17.48;;;;;;;;;;5039469;28;20036;-68
2024/03/03 00:54:22;;;;;;;46.20;18.88;;;;;;;;;;5053733;28;20025;-68
2024/03/03 00:57:08;;;;;;;50.58;21.27;;;;;;;;;;5054715;28;20506;-68
2024/03/03 00:59:53;;;;;;;43.10;19.55;;;;;;;;;;5056368;28;20541;-68
2024/03/03 01:02:39;;;;;;;45.70;17.77;;;;;;;;;;5054828;28;20413;-68
2024/03/03 01:05:25;;;;;;;44.00;20.42;;;;;;;;;;5055662;28;20486;-68
2024/03/03 01:08:10;;;;;;;49.88;18.98;;;;;;;;;;5040240;28;20029;-68
2024/03/03 01:10:56;;;;;;;45.95;21.20;;;;;;;;;;5035568;28;20061;-68
2024/03/03 01:13:42;;;;;;;56.25;23.02;;;;;;;;;;5035518;28;20109;-68
2024/03/03 01:16:28;;;;;;;50.00;21.17;;;;;;;;;;5035733;28;20067;-68
2024/03/03 01:19:13;;;;;;;52.42;22.13;;;;;;;;;;5035741;28;20116;-68
2024/03/03 01:21:59;;;;;;;50.67;21.23;;;;;;;;;;5035158;28;20082;-68
2024/03/03 01:24:45;;;;;;;50.53;21.10;;;;;;;;;;5039388;28;20078;-68
2024/03/03 01:27:30;;;;;;;53.05;20.58;;;;;;;;;;5035203;28;20078;-68
2024/03/03 01:30:17;;;;;;;54.90;22.90;;;;;;;;;;5044171;28;20124;-68
2024/03/03 01:33:03;;;;;;;52.92;20.80;;;;;;;;;;5054329;28;20389;-68
2024/03/03 01:35:49;;;;;;;55.58;22.85;;;;;;;;;;5053958;28;20048;-68
2024/03/03 01:38:34;;;;;;;59.75;23.85;;;;;;;;;;5052250;28;20017;-68
2024/03/03 01:41:20;;;;;;;49.38;21.20;;;;;;;;;;5051875;28;20024;-68
2024/03/03 01:44:06;;;;;;;51.50;22.58;;;;;;;;;;5049689;28;20029;-68
2024/03/03 01:46:52;;;;;;;53.83;23.10;;;;;;;;;;5021566;28;20025;-68
2024/03/03 01:49:38;;;;;;;58.75;21.95;;;;;;;;;;5020948;28;20081;-68
2024/03/03 01:52:25;;;;;;;54.00;22.17;;;;;;;;;;5031574;28;20025;-68
2024/03/03 01:55:12;;;;;;;57.65;22.95;;;;;;;;;;5054746;28;20053;-68
2024/03/03 01:58:02;;;;;;;56.53;22.98;;;;;;;;;;5039146;28;20021;-68
2024/03/03 02:00:49;;;;;;;50.67;22.48;;;;;;;;;;5054643;28;20115;-68
2024/03/03 02:03:34;;;;;;;51.00;21.00;;;;;;;;;;5039215;28;20021;-68
2024/03/03 02:06:22;;;;;;;53.72;22.33;;;;;;;;;;5053027;28;20033;-68
2024/03/03 02:09:10;;;;;;;52.47;23.13;;;;;;;;;;5019685;28;20021;-68
2024/03/03 02:11:56;;;;;;;58.75;21.20;;;;;;;;;;5034566;28;20379;-68
2024/03/03 02:14:41;;;;;;;60.75;22.58;;;;;;;;;;5034842;28;20501;-68
2024/03/03 02:17:27;;;;;;;60.50;24.85;;;;;;;;;;5021013;28;20171;-68
2024/03/03 02:20:13;;;;;;;54.65;21.95;;;;;;;;;;5032099;28;20063;-68
2024/03/03 02:22:58;;;;;;;59.67;22.75;;;;;;;;;;5038194;28;20033;-68
2024/03/03 02:25:44;;;;;;;54.20;18.58;;;;;;;;;;5033870;28;20379;-68
2024/03/03 02:28:31;;;;;;;54.20;22.77;;;;;;;;;;5039975;28;20021;-68
2024/03/03 02:31:17;;;;;;;53.42;20.65;;;;;;;;;;5019248;28;20033;-68
2024/03/03 02:34:03;;;;;;;53.92;22.20;;;;;;;;;;5023570;28;20032;-68
2024/03/03 02:36:49;;;;;;;55.90;23.42;;;;;;;;;;5032919;28;20032;-68
2024/03/03 02:39:34;;;;;;;57.30;24.38;;;;;;;;;;5034979;28;20624;-68
2024/03/03 02:42:20;;;;;;;60.28;24.95;;;;;;;;;;5033350;28;20033;-68
2024/03/03 02:45:06;;;;;;;58.60;24.60;;;;;;;;;;5033359;28;20017;-68
2024/03/03 02:47:53;;;;;;;53.50;24.67;;;;;;;;;;5044840;28;20108;-68
2024/03/03 02:50:39;;;;;;;61.75;25.73;;;;;;;;;;5053297;28;20025;-68
2024/03/03 02:53:25;;;;;;;64.53;25.25;;;;;;;;;;5052398;28;20024;-68
2024/03/03 02:56:10;;;;;;;68.28;28.35;;;;;;;;;;5054103;28;20020;-68
2024/03/03 02:58:56;;;;;;;61.17;25.42;;;;;;;;;;5051406;28;20108;-68
2024/03/03 03:01:41;;;;;;;67.55;26.90;;;;;;;;;;5052584;28;20554;-68
2024/03/03 03:04:28;;;;;;;55.63;24.45;;;;;;;;;;5052392;28;20033;-68
2024/03/03 03:07:14;;;;;;;71.10;25.58;;;;;;;;;;5053170;28;20025;-68
2024/03/03 03:10:00;;;;;;;64.68;25.27;;;;;;;;;;5053404;28;20029;-68
2024/03/03 03:12:45;;;;;;;67.40;27.27;;;;;;;;;;5044416;28;20107;-68
2024/03/03 03:15:35;;;;;;;62.47;26.60;;;;;;;;;;5032618;28;20025;-68
2024/03/03 03:18:20;;;;;;;61.92;26.33;;;;;;;;;;5035633;28;20029;-68
2024/03/03 03:21:06;;;;;;;66.45;28.40;;;;;;;;;;5037046;28;20553;-68
2024/03/03 03:23:52;;;;;;;69.32;27.70;;;;;;;;;;5034607;28;20036;-68
2024/03/03 03:26:38;;;;;;;63.80;24.00;;;;;;;;;;5034121;28;20380;-68
2024/03/03 03:29:24;;;;;;;71.57;28.77;;;;;;;;;;5053275;28;20087;-68
2024/03/03 03:32:09;;;;;;;69.78;26.17;;;;;;;;;;5051551;28;20029;-68
2024/03/03 03:34:55;;;;;;;69.93;27.92;;;;;;;;;;5041384;28;20025;-68
2024/03/03 03:37:41;;;;;;;74.03;26.73;;;;;;;;;;5027506;28;20550;-68
2024/03/03 03:40:27;;;;;;;67.25;26.15;;;;;;;;;;5033948;28;20037;-68
2024/03/03 03:43:13;;;;;;;64.75;26.23;;;;;;;;;;5035041;28;20087;-68
2024/03/03 03:45:58;;;;;;;80.07;29.48;;;;;;;;;;5043547;28;20029;-68
2024/03/03 03:48:44;;;;;;;71.47;26.58;;;;;;;;;;5044026;28;20022;-68
2024/03/03 03:51:30;;;;;;;66.35;26.52;;;;;;;;;;5036747;28;20518;-68
2024/03/03 03:54:15;;;;;;;69.88;27.95;;;;;;;;;;5039671;28;20032;-68
2024/03/03 03:57:01;;;;;;;79.65;28.25;;;;;;;;;;5037008;28;20041;-68
2024/03/03 03:59:47;;;;;;;79.20;29.00;;;;;;;;;;5038140;28;20053;-68
2024/03/03 04:02:32;;;;;;;72.05;28.08;;;;;;;;;;5037098;28;20076;-68
2024/03/03 04:05:18;;;;;;;75.70;30.17;;;;;;;;;;5036665;28;20029;-68
2024/03/03 04:08:04;;;;;;;79.53;30.05;;;;;;;;;;5035978;28;20021;-68
2024/03/03 04:10:49;;;;;;;74.18;29.58;;;;;;;;;;5038338;28;20535;-68
2024/03/03 04:13:35;;;;;;;76.10;29.92;;;;;;;;;;5056366;28;20029;-68
2024/03/03 04:16:21;;;;;;;76.85;28.23;;;;;;;;;;5055008;28;20035;-68
2024/03/03 04:19:06;;;;;;;76.30;28.77;;;;;;;;;;5050068;28;20110;-68
2024/03/03 04:21:52;;;;;;;77.45;29.80;;;;;;;;;;5056070;28;20109;-68
2024/03/03 04:24:38;;;;;;;72.18;27.85;;;;;;;;;;5040878;28;20453;-68
2024/03/03 04:27:23;;;;;;;85.18;29.27;;;;;;;;;;5035986;28;20017;-68
2024/03/03 04:30:10;;;;;;;69.50;29.70;;;;;;;;;;5046626;28;20029;-68
2024/03/03 04:32:55;;;;;;;77.90;31.45;;;;;;;;;;5055983;28;20493;-68
2024/03/03 04:35:42;;;;;;;77.13;28.08;;;;;;;;;;5039663;28;20397;-67
2024/03/03 04:38:28;;;;;;;68.38;28.92;;;;;;;;;;5036699;28;20487;-68
2024/03/03 04:41:15;;;;;;;80.97;33.95;;;;;;;;;;5048539;28;20025;-68
2024/03/03 04:44:00;;;;;;;72.75;29.13;;;;;;;;;;5054262;28;20029;-69
2024/03/03 04:46:46;;;;;;;83.00;27.63;;;;;;;;;;5054669;28;20029;-68
2024/03/03 04:49:32;;;;;;;78.93;31.90;;;;;;;;;;5055731;28;20025;-68
2024/03/03 04:52:18;;;;;;;73.50;27.33;;;;;;;;;;5054936;28;20024;-68
2024/03/03 04:55:05;;;;;;;84.75;31.80;;;;;;;;;;5035760;28;20029;-68
2024/03/03 04:57:52;;;;;;;76.93;29.30;;;;;;;;;;5040707;28;20075;-68
2024/03/03 05:00:37;;;;;;;83.95;31.52;;;;;;;;;;5133622;22;20056;-68
2024/03/03 05:03:24;;;;;;;75.28;31.73;;;;;;;;;;5054805;28;20021;-68
2024/03/03 05:06:09;;;;;;;82.63;30.40;;;;;;;;;;5026636;28;20044;-68
2024/03/03 05:08:55;;;;;;;75.40;28.33;;;;;;;;;;5054991;28;20039;-68
2024/03/03 05:11:42;;;;;;;65.72;28.63;;;;;;;;;;5034574;28;20029;-68
2024/03/03 05:14:28;;;;;;;73.50;28.88;;;;;;;;;;5019548;28;20538;-68
2024/03/03 05:17:14;;;;;;;67.60;26.77;;;;;;;;;;5034424;28;20021;-68
2024/03/03 05:20:01;;;;;;;73.60;30.23;;;;;;;;;;5021529;28;20056;-68
2024/03/03 05:22:47;;;;;;;81.20;30.92;;;;;;;;;;5034191;28;20036;-68
2024/03/03 05:25:33;;;;;;;66.75;28.00;;;;;;;;;;5033687;28;20025;-68
2024/03/03 05:28:19;;;;;;;77.15;29.15;;;;;;;;;;5034568;28;20028;-68
2024/03/03 05:31:05;;;;;;;71.90;27.55;;;;;;;;;;5020686;28;20021;-68
2024/03/03 05:33:51;;;;;;;77.03;29.13;;;;;;;;;;5035685;28;20017;-68
2024/03/03 05:36:37;;;;;;;69.47;29.88;;;;;;;;;;5034638;28;20025;-68
2024/03/03 05:39:22;;;;;;;78.55;29.20;;;;;;;;;;5034321;28;20017;-68
2024/03/03 05:42:08;;;;;;;76.55;29.23;;;;;;;;;;5034379;28;20026;-68
2024/03/03 05:44:54;;;;;;;72.53;28.77;;;;;;;;;;5024501;28;20038;-68
2024/03/03 05:47:39;;;;;;;69.70;28.80;;;;;;;;;;5034871;28;20033;-68
2024/03/03 05:50:25;;;;;;;65.38;26.70;;;;;;;;;;5034453;28;20391;-68
2024/03/03 05:53:11;;;;;;;77.18;28.38;;;;;;;;;;5034474;28;20456;-68
2024/03/03 05:55:56;;;;;;;85.15;30.65;;;;;;;;;;5032914;28;20044;-68
2024/03/03 05:58:42;;;;;;;71.30;30.52;;;;;;;;;;5033849;28;20028;-68
2024/03/03 06:01:29;;;;;;;71.68;28.92;;;;;;;;;;5018793;28;20052;-68
2024/03/03 06:04:18;;;;;;;76.45;30.13;;;;;;;;;;5019895;28;20029;-68
2024/03/03 06:07:04;;;;;;;74.93;31.77;;;;;;;;;;5018742;28;20018;-68
2024/03/03 06:09:50;;;;;;;76.63;31.33;;;;;;;;;;5033514;28;20505;-68
2024/03/03 06:12:36;;;;;;;75.72;29.95;;;;;;;;;;5032208;28;20029;-68
2024/03/03 06:15:21;;;;;;;85.75;32.75;;;;;;;;;;5014387;28;20181;-68
2024/03/03 06:18:07;;;;;;;90.72;32.92;;;;;;;;;;5017467;28;20036;-68
2024/03/03 06:20:53;;;;;;;83.00;31.98;;;;;;;;;;5016460;28;20087;-68
2024/03/03 06:23:39;;;;;;;90.65;33.47;;;;;;;;;;5032862;28;20030;-68
2024/03/03 06:26:28;;;;;;;85.35;31.92;;;;;;;;;;5032497;28;20091;-68
2024/03/03 06:29:14;;;;;;;91.43;32.67;;;;;;;;;;5026461;28;20506;-68
2024/03/03 06:32:00;;;;;;;91.70;33.47;;;;;;;;;;5013131;28;20029;-68
2024/03/03 06:34:48;;;;;;;90.00;33.30;;;;;;;;;;5032160;28;20021;-68
2024/03/03 06:37:33;;;;;;;88.43;34.10;;;;;;;;;;5032180;28;20163;-68
2024/03/03 06:40:19;;;;;;;84.97;31.08;;;;;;;;;;5031262;28;20068;-68
2024/03/03 06:43:05;;;;;;;78.03;29.50;;;;;;;;;;5029563;28;20487;-68
2024/03/03 06:45:51;;;;;;;83.32;31.95;;;;;;;;;;5033817;28;20108;-68
2024/03/03 06:48:37;;;;;;;81.35;30.85;;;;;;;;;;5027224;28;20033;-68
2024/03/03 06:51:22;;;;;;;88.05;30.98;;;;;;;;;;5018301;23;20116;-68
2024/03/03 06:54:08;;;;;;;80.85;30.90;;;;;;;;;;5015081;28;20044;-68
2024/03/03 06:56:54;;;;;;;95.95;33.28;;;;;;;;;;5012263;28;20022;-68
2024/03/03 06:59:40;;;;;;;85.28;33.08;;;;;;;;;;5019587;28;20040;-68
2024/03/03 07:02:56;;;;;;;92.63;30.48;;;;;;;;;;5012810;28;20080;-68
2024/03/03 07:05:31;;;;;;;89.00;31.27;;;;;;;;;;5028293;28;20033;-68
2024/03/03 07:08:16;;;;;;;95.20;31.48;;;;;;;;;;5032939;28;20100;-68
2024/03/03 07:11:02;;;;;;;94.10;33.83;;;;;;;;;;5016542;28;20053;-68
2024/03/03 07:13:48;;;;;;;90.10;30.55;;;;;;;;;;5012047;28;20049;-68
2024/03/03 07:16:33;;;;;;;99.13;31.90;;;;;;;;;;5017984;28;20087;-68
2024/03/03 07:19:19;;;;;;;91.63;32.28;;;;;;;;;;5012948;28;20488;-68
2024/03/03 07:22:05;;;;;;;88.55;31.30;;;;;;;;;;5025221;28;20111;-68
2024/03/03 07:24:50;;;;;;;90.13;32.05;;;;;;;;;;5032067;28;20026;-68
2024/03/03 07:27:37;;;;;;;103.43;36.63;;;;;;;;;;5023894;28;20022;-68
2024/03/03 07:30:23;;;;;;;91.53;34.63;;;;;;;;;;5011531;28;20116;-68
2024/03/03 07:33:08;;;;;;;96.45;31.95;;;;;;;;;;5018157;28;20470;-68
2024/03/03 07:35:54;;;;;;;87.10;34.20;;;;;;;;;;5025662;28;20048;-68
2024/03/03 07:38:40;;;;;;;102.85;36.67;;;;;;;;;;5013226;28;20022;-68
2024/03/03 07:41:26;;;;;;;98.82;34.20;;;;;;;;;;5011304;28;20033;-68
2024/03/03 07:44:18;;;;;;;93.10;34.45;;;;;;;;;;5023768;28;20041;-68
2024/03/03 07:47:03;;;;;;;102.45;34.72;;;;;;;;;;5011842;28;20022;-68
2024/03/03 07:49:49;;;;;;;88.35;30.08;;;;;;;;;;5014086;28;20446;-68
2024/03/03 07:52:34;;;;;;;104.88;36.22;;;;;;;;;;5033040;28;20083;-68
2024/03/03 07:55:20;;;;;;;97.85;33.90;;;;;;;;;;5032348;28;20022;-68
2024/03/03 07:58:06;;;;;;;99.80;32.22;;;;;;;;;;5033264;28;20391;-68
2024/03/03 08:00:52;;;;;;;99.65;37.10;;;;;;;;;;5032134;28;20537;-68
2024/03/03 08:03:37;;;;;;;110.43;35.58;;;;;;;;;;5032366;28;20510;-68
2024/03/03 08:06:23;;;;;;;112.80;37.78;;;;;;;;;;5031977;28;20029;-68
2024/03/03 08:09:09;;;;;;;105.90;36.03;;;;;;;;;;5032331;28;20025;-68
2024/03/03 08:11:55;;;;;;;119.32;40.50;;;;;;;;;;5031913;28;20033;-68
2024/03/03 08:14:40;;;;;;;118.68;39.70;;;;;;;;;;5031541;28;20025;-68
2024/03/03 08:17:26;;;;;;;125.50;39.25;;;;;;;;;;5031453;28;20033;-68
2024/03/03 08:20:12;;;;;;;121.15;38.05;;;;;;;;;;5031936;28;20402;-68
2024/03/03 08:22:57;;;;;;;125.97;41.33;;;;;;;;;;5031925;28;20017;-68
2024/03/03 08:25:43;;;;;;;117.22;39.05;;;;;;;;;;5028219;28;20032;-68
2024/03/03 08:28:28;;;;;;;118.70;40.70;;;;;;;;;;5030935;28;20022;-68
2024/03/03 08:31:16;;;;;;;129.18;45.25;;;;;;;;;;5022395;28;20100;-68
2024/03/03 08:34:02;;;;;;;132.82;42.55;;;;;;;;;;5016320;28;20527;-68
2024/03/03 08:36:47;;;;;;;153.40;45.53;;;;;;;;;;5032388;28;20033;-68
2024/03/03 08:39:34;;;;;;;141.35;46.97;;;;;;;;;;5034831;28;20026;-68
2024/03/03 08:42:20;;;;;;;141.98;44.67;;;;;;;;;;5035181;28;20029;-68
2024/03/03 08:45:06;;;;;;;147.85;45.03;;;;;;;;;;5035010;28;20029;-68
2024/03/03 08:47:52;;;;;;;134.45;45.13;;;;;;;;;;5032760;28;20084;-68
2024/03/03 08:50:37;;;;;;;142.65;44.53;;;;;;;;;;5014199;28;20411;-67
2024/03/03 08:53:23;;;;;;;142.65;47.55;;;;;;;;;;5018997;28;20028;-68
2024/03/03 08:56:09;;;;;;;145.65;45.92;;;;;;;;;;5032104;28;20025;-68
2024/03/03 08:58:54;;;;;;;148.95;47.33;;;;;;;;;;5035451;28;20087;-68
2024/03/03 09:01:40;;;;;;;140.15;45.90;;;;;;;;;;5034463;28;20032;-68
2024/03/03 09:04:25;;;;;;;155.52;47.58;;;;;;;;;;5034010;28;20021;-68
2024/03/03 09:07:11;;;;;;;131.38;43.72;;;;;;;;;;5034616;28;20026;-68
2024/03/03 09:09:57;;;;;;;145.18;46.47;;;;;;;;;;5034934;28;20029;-68
2024/03/03 09:12:43;;;;;;;139.07;46.53;;;;;;;;;;5026057;28;20033;-68
2024/03/03 09:15:28;;;;;;;145.82;45.88;;;;;;;;;;5015297;28;20026;-68
2024/03/03 09:18:14;;;;;;;140.50;43.88;;;;;;;;;;5020689;28;20441;-68
2024/03/03 09:21:00;;;;;;;141.50;46.40;;;;;;;;;;5014695;28;20087;-68
2024/03/03 09:23:46;;;;;;;135.15;45.10;;;;;;;;;;5031038;28;20029;-68
2024/03/03 09:26:31;;;;;;;133.88;45.30;;;;;;;;;;5032380;28;20124;-68
2024/03/03 09:29:18;;;;;;;137.75;44.45;;;;;;;;;;5028624;28;20021;-68
2024/03/03 09:32:04;;;;;;;135.45;42.22;;;;;;;;;;5033421;28;20036;-68
2024/03/03 09:34:50;;;;;;;137.02;42.97;;;;;;;;;;5030002;28;20032;-67
2024/03/03 09:37:36;;;;;;;137.43;44.33;;;;;;;;;;5033675;28;20487;-68
2024/03/03 09:40:22;;;;;;;138.15;44.40;;;;;;;;;;5021264;28;20040;-68
2024/03/03 09:43:18;;;;;;;116.35;41.67;;;;;;;;;;5012527;28;20026;-68
2024/03/03 09:46:04;;;;;;;126.22;42.58;;;;;;;;;;5024210;28;20022;-68
2024/03/03 09:48:50;;;;;;;115.88;39.85;;;;;;;;;;5026771;28;20033;-68
2024/03/03 09:51:38;;;;;;;119.55;40.08;;;;;;;;;;5026667;28;20038;-68
2024/03/03 09:54:24;;;;;;;121.30;41.35;;;;;;;;;;5020993;28;20053;-68
2024/03/03 09:57:14;;;;;;;110.93;39.97;;;;;;;;;;5022820;28;20482;-68
2024/03/03 10:00:01;;;;;;;105.40;39.67;;;;;;;;;;5033300;28;20132;-67
2024/03/03 10:02:47;;;;;;;114.47;43.58;;;;;;;;;;5033355;28;20087;-67
2024/03/03 10:05:39;;;;;;;122.07;38.67;;;;;;;;;;5033544;28;20036;-68
2024/03/03 10:08:27;;;;;;;120.18;42.90;;;;;;;;;;5024787;28;20101;-68
2024/03/03 10:11:15;;;;;;;104.50;38.20;;;;;;;;;;5014006;28;20511;-68
2024/03/03 10:14:00;;;;;;;116.15;39.78;;;;;;;;;;5014959;28;20029;-69
2024/03/03 10:16:46;;;;;;;111.05;39.92;;;;;;;;;;5013529;28;20557;-68
2024/03/03 10:19:32;;;;;;;109.53;38.38;;;;;;;;;;5016427;28;20071;-68
2024/03/03 10:22:19;;;;;;;101.40;38.88;;;;;;;;;;5031242;28;20029;-67
2024/03/03 10:25:12;;;;;;;94.97;35.70;;;;;;;;;;5032455;28;20031;-67
2024/03/03 10:28:12;;;;;;;93.82;35.42;;;;;;;;;;5018274;28;20403;-68
2024/03/03 10:31:15;;;;;;;95.38;35.40;;;;;;;;;;5013722;28;20038;-67
2024/03/03 10:34:01;;;;;;;104.57;39.30;;;;;;;;;;5013612;28;20037;-68
2024/03/03 10:36:47;;;;;;;103.90;37.92;;;;;;;;;;5013104;28;20029;-68
2024/03/03 10:39:37;;;;;;;90.93;32.33;;;;;;;;;;5020126;28;20396;-68
2024/03/03 10:42:22;;;;;;;97.35;33.92;;;;;;;;;;5028333;28;20045;-68
2024/03/03 10:45:09;;;;;;;96.55;35.78;;;;;;;;;;5032796;28;20052;-67
2024/03/03 10:47:55;;;;;;;98.65;37.10;;;;;;;;;;5014616;28;20041;-68
2024/03/03 10:50:45;;;;;;;105.50;37.65;;;;;;;;;;5013688;28;20033;-68
2024/03/03 10:53:31;;;;;;;106.40;37.88;;;;;;;;;;5015815;28;20037;-67
2024/03/03 10:56:17;;;;;;;90.20;33.78;;;;;;;;;;5012750;28;20403;-67
2024/03/03 10:59:04;;;;;;;96.78;38.78;;;;;;;;;;5023341;28;20076;-67
2024/03/03 11:01:51;;;;;;;95.68;34.03;;;;;;;;;;5063198;23;20075;-69
2024/03/03 11:04:39;;;;;;;105.15;38.60;;;;;;;;;;5034735;28;20052;-69
2024/03/03 11:07:24;;;;;;;103.88;37.00;;;;;;;;;;5032846;28;20164;-69
2024/03/03 11:10:11;;;;;;;109.95;38.33;;;;;;;;;;5037728;28;20021;-70
2024/03/03 11:12:57;;;;;;;102.13;35.25;;;;;;;;;;5032650;28;20024;-69
2024/03/03 11:15:46;;;;;;;92.13;36.88;;;;;;;;;;5018618;28;20097;-69
2024/03/03 11:18:33;;;;;;;87.47;35.38;;;;;;;;;;5039302;28;20031;-70
2024/03/03 11:21:27;;;;;;;91.07;34.83;;;;;;;;;;5036666;28;20021;-69
2024/03/03 11:24:22;;;;;;;90.32;31.42;;;;;;;;;;5033885;28;20482;-69
2024/03/03 11:27:15;;;;;;;91.93;37.70;;;;;;;;;;5031957;28;20029;-67
2024/03/03 11:30:01;;;;;;;83.90;31.77;;;;;;;;;;5032941;28;20037;-69
2024/03/03 11:32:47;;;;;;;76.93;31.08;;;;;;;;;;5031874;28;20026;-69
2024/03/03 11:35:33;;;;;;;84.65;33.47;;;;;;;;;;5022269;28;20030;-69
2024/03/03 11:38:20;;;;;;;81.75;32.10;;;;;;;;;;5018574;28;20018;-69
2024/03/03 11:41:10;;;;;;;83.10;34.05;;;;;;;;;;5027537;28;20026;-69
2024/03/03 11:43:56;;;;;;;;;;;;;;;;;;5017633;28;20022;-69
2024/03/03 11:46:49;;;;;;;73.05;30.17;;;;;;;;;;5052231;28;19912;-69
2024/03/03 11:49:42;;;;;;;78.25;29.35;;;;;;;;;;5024296;28;20103;-70
2024/03/03 11:52:41;;;;;;;72.10;31.42;;;;;;;;;;5035039;28;20021;-69
2024/03/03 11:55:32;;;;;;;75.03;31.48;;;;;;;;;;5037572;28;20025;-69
2024/03/03 11:58:18;;;;;;;79.38;32.75;;;;;;;;;;5052618;28;20025;-69
2024/03/03 12:01:09;;;;;;;81.60;31.10;;;;;;;;;;5052708;28;20112;-69
2024/03/03 12:03:56;;;;;;;68.85;27.98;;;;;;;;;;5039106;28;20029;-69
2024/03/03 12:06:45;;;;;;;73.15;30.15;;;;;;;;;;5054416;28;20067;-70
2024/03/03 12:09:32;;;;;;;74.45;31.05;;;;;;;;;;5057306;28;20473;-70
2024/03/03 12:12:18;;;;;;;75.15;30.77;;;;;;;;;;5027557;28;20112;-70
2024/03/03 12:15:04;;;;;;;77.65;32.17;;;;;;;;;;5055203;28;20032;-70
2024/03/03 12:17:51;;;;;;;70.88;30.80;;;;;;;;;;5057107;28;20104;-70
2024/03/03 12:20:38;;;;;;;78.40;30.35;;;;;;;;;;5041220;28;20366;-70
2024/03/03 12:23:23;;;;;;;79.47;30.35;;;;;;;;;;5041235;28;20563;-70
2024/03/03 12:26:10;;;;;;;74.50;30.35;;;;;;;;;;5037112;28;20025;-70
2024/03/03 12:28:55;;;;;;;86.57;34.65;;;;;;;;;;5036481;28;20022;-70
2024/03/03 12:31:41;;;;;;;78.53;31.73;;;;;;;;;;5038373;28;20025;-70
2024/03/03 12:34:27;;;;;;;77.20;32.33;;;;;;;;;;5049219;28;20025;-70
2024/03/03 12:37:12;;;;;;;77.18;30.70;;;;;;;;;;5056450;28;20024;-70
2024/03/03 12:39:58;;;;;;;74.63;32.10;;;;;;;;;;5054683;28;20100;-70
2024/03/03 12:42:51;;;;;;;76.90;31.92;;;;;;;;;;5026704;28;20072;-71
2024/03/03 12:45:37;;;;;;;83.60;33.20;;;;;;;;;;5035756;28;20029;-70
2024/03/03 12:48:22;;;;;;;73.88;30.60;;;;;;;;;;5034709;28;20546;-70
2024/03/03 12:51:11;;;;;;;76.43;32.25;;;;;;;;;;5035691;28;20487;-71
2024/03/03 12:53:57;;;;;;;85.57;32.97;;;;;;;;;;5055524;28;20500;-71
2024/03/03 12:56:43;;;;;;;79.88;34.30;;;;;;;;;;5041141;28;20155;-70
2024/03/03 12:59:31;;;;;;;75.85;31.25;;;;;;;;;;5055982;28;20028;-69
2024/03/03 13:02:17;;;;;;;80.57;32.35;;;;;;;;;;5040342;28;20033;-71
2024/03/03 13:05:03;;;;;;;73.70;31.67;;;;;;;;;;5054495;28;20025;-71
2024/03/03 13:07:50;;;;;;;77.00;32.28;;;;;;;;;;5049099;28;20530;-71
2024/03/03 13:10:36;;;;;;;85.45;34.50;;;;;;;;;;5022078;28;20504;-70
2024/03/03 13:13:23;;;;;;;77.22;31.15;;;;;;;;;;5035560;28;20108;-71
2024/03/03 13:16:09;;;;;;;70.80;31.58;;;;;;;;;;5038711;28;20132;-71
2024/03/03 13:18:59;;;;;;;73.53;29.50;;;;;;;;;;5021442;28;20099;-70
2024/03/03 13:21:48;;;;;;;74.85;30.80;;;;;;;;;;5021388;28;20506;-70
2024/03/03 13:24:35;;;;;;;67.75;28.15;;;;;;;;;;5053232;28;20067;-70
2024/03/03 13:27:24;;;;;;;78.68;33.35;;;;;;;;;;5055144;28;20021;-70
2024/03/03 13:30:13;;;;;;;67.75;30.15;;;;;;;;;;5041238;28;20071;-71
2024/03/03 13:32:59;;;;;;;67.85;30.92;;;;;;;;;;5034926;28;20048;-70
2024/03/03 13:35:44;;;;;;;77.95;30.80;;;;;;;;;;5034945;28;20034;-70
2024/03/03 13:38:30;;;;;;;80.35;30.73;;;;;;;;;;5036729;28;20032;-70
2024/03/03 13:41:16;;;;;;;72.82;32.22;;;;;;;;;;5054662;28;20021;-70
2024/03/03 13:44:02;;;;;;;71.70;29.95;;;;;;;;;;5054215;28;20029;-70
2024/03/03 13:46:47;;;;;;;72.45;29.75;;;;;;;;;;5053981;28;20047;-70
2024/03/03 13:49:33;;;;;;;68.50;31.65;;;;;;;;;;5053254;28;20021;-70
2024/03/03 13:52:19;;;;;;;71.65;32.58;;;;;;;;;;5053972;28;20013;-70
2024/03/03 13:55:05;;;;;;;80.65;30.25;;;;;;;;;;5053430;28;20405;-70
2024/03/03 13:57:51;;;;;;;76.68;31.67;;;;;;;;;;5052947;28;20486;-70
2024/03/03 14:00:38;;;;;;;77.00;32.35;;;;;;;;;;5052597;28;20114;-69
2024/03/03 14:03:24;;;;;;;75.28;31.23;;;;;;;;;;5049469;28;20025;-70
2024/03/03 14:06:09;;;;;;;82.53;31.80;;;;;;;;;;5040707;28;20039;-70
2024/03/03 14:08:55;;;;;;;80.97;32.47;;;;;;;;;;5051663;28;20062;-69
2024/03/03 14:11:41;;;;;;;80.38;30.27;;;;;;;;;;5041013;28;20505;-70
2024/03/03 14:14:26;;;;;;;86.53;33.95;;;;;;;;;;5042958;28;20023;-70
2024/03/03 14:17:12;;;;;;;85.78;32.05;;;;;;;;;;5052536;28;20029;-70
2024/03/03 14:19:57;;;;;;;75.00;31.38;;;;;;;;;;5054190;28;20009;-70
2024/03/03 14:22:49;;;;;;;81.15;31.75;;;;;;;;;;5052657;28;20036;-69
2024/03/03 14:25:34;;;;;;;86.55;33.97;;;;;;;;;;5054129;28;20035;-70
2024/03/03 14:28:20;;;;;;;88.70;33.28;;;;;;;;;;5052137;28;20031;-69
2024/03/03 14:31:06;;;;;;;91.22;32.38;;;;;;;;;;5053227;28;20183;-70
2024/03/03 14:33:52;;;;;;;81.53;35.58;;;;;;;;;;5053461;28;20486;-70
2024/03/03 14:36:38;;;;;;;85.82;32.08;;;;;;;;;;5053129;28;20055;-70
2024/03/03 14:39:24;;;;;;;93.53;34.35;;;;;;;;;;5053418;28;20107;-70
2024/03/03 14:42:12;;;;;;;81.68;31.65;;;;;;;;;;5053861;28;20050;-70
2024/03/03 14:44:58;;;;;;;83.10;33.00;;;;;;;;;;5038064;28;20485;-70
2024/03/03 14:47:43;;;;;;;87.90;32.50;;;;;;;;;;5053571;28;20028;-70
2024/03/03 14:50:29;;;;;;;81.97;32.25;;;;;;;;;;5052439;28;20033;-70
2024/03/03 14:53:15;;;;;;;83.05;32.45;;;;;;;;;;5053478;28;20021;-70
2024/03/03 14:56:02;;;;;;;81.88;30.23;;;;;;;;;;5053637;28;20043;-70
2024/03/03 14:58:48;;;;;;;84.45;31.77;;;;;;;;;;5039588;28;20020;-70
2024/03/03 15:01:33;;;;;;;90.00;31.83;;;;;;;;;;5038679;28;20072;-70
2024/03/03 15:04:20;;;;;;;79.18;30.05;;;;;;;;;;5051705;28;20506;-70
2024/03/03 15:07:10;;;;;;;75.63;29.27;;;;;;;;;;5038985;28;20017;-70
2024/03/03 15:09:58;;;;;;;78.85;30.30;;;;;;;;;;5052552;28;20417;-69
2024/03/03 15:12:44;;;;;;;73.30;28.85;;;;;;;;;;5053106;28;20501;-70
2024/03/03 15:15:32;;;;;;;87.90;31.13;;;;;;;;;;5052885;28;20028;-69
2024/03/03 15:18:18;;;;;;;91.90;29.95;;;;;;;;;;5051144;28;20386;-69
2024/03/03 15:21:05;;;;;;;85.22;32.45;;;;;;;;;;5052871;28;20025;-69
2024/03/03 15:23:51;;;;;;;79.88;32.67;;;;;;;;;;5033871;28;20033;-69
2024/03/03 15:26:37;;;;;;;86.07;33.28;;;;;;;;;;5033076;28;20028;-69
2024/03/03 15:29:23;;;;;;;94.22;32.47;;;;;;;;;;5052051;28;20481;-70
2024/03/03 15:32:09;;;;;;;85.93;32.83;;;;;;;;;;5038708;28;20025;-70
2024/03/03 15:34:54;;;;;;;76.40;29.92;;;;;;;;;;5044502;28;20035;-70
2024/03/03 15:37:40;;;;;;;83.80;29.70;;;;;;;;;;5036955;28;20448;-69
2024/03/03 15:40:27;;;;;;;83.75;31.95;;;;;;;;;;5027319;28;20022;-70
2024/03/03 15:43:13;;;;;;;85.63;30.50;;;;;;;;;;5040980;28;20498;-70
2024/03/03 15:45:58;;;;;;;81.78;29.25;;;;;;;;;;5045448;28;20037;-69
2024/03/03 15:48:44;;;;;;;82.88;29.95;;;;;;;;;;5037583;28;20029;-69
2024/03/03 15:51:30;;;;;;;83.90;31.58;;;;;;;;;;5044301;28;20064;-69
2024/03/03 15:54:15;;;;;;;86.03;31.73;;;;;;;;;;5045860;28;20111;-69
2024/03/03 15:57:02;;;;;;;90.68;32.38;;;;;;;;;;5045987;28;20486;-68
2024/03/03 15:59:48;;;;;;;89.88;32.20;;;;;;;;;;5040492;28;20020;-69
2024/03/03 16:02:33;;;;;;;88.03;30.73;;;;;;;;;;5045847;28;20029;-70
2024/03/03 16:05:19;;;;;;;88.93;31.38;;;;;;;;;;5044601;28;20025;-70
2024/03/03 16:08:08;;;;;;;80.60;32.30;;;;;;;;;;5043826;28;20027;-70